Time;durP1;ratioP1;P1;durP2;ratioP2;P2;SDS_P1;SDS_P2;PMS_P1;PMS_P2;Temp;Humidity;BMP_temperature;BMP_pressure;BME280_temperature;BME280_humidity;BME280_pressure;Samples;Min_cycle;Max_cycle;Signal;HPM_P1;HPM_P2
2022/05/30 00:02:04;;;;;;;4.90;3.67;;;;;;;;;;5075393;28;20028;-72
2022/05/30 00:04:29;;;;;;;6.47;4.13;;;;;;;;;;5075400;28;20048;-72
2022/05/30 00:06:55;;;;;;;3.83;3.50;;;;;;;;;;5081177;28;20414;-72
2022/05/30 00:09:20;;;;;;;5.65;3.60;;;;;;;;;;5095598;28;20107;-72
2022/05/30 00:11:48;;;;;;;5.93;3.95;;;;;;;;;;5095218;28;20066;-72
2022/05/30 00:14:13;;;;;;;6.30;3.80;;;;;;;;;;5095334;28;20167;-72
2022/05/30 00:16:38;;;;;;;5.28;4.25;;;;;;;;;;5095240;28;20048;-72
2022/05/30 00:19:04;;;;;;;4.72;3.60;;;;;;;;;;5095254;28;20462;-72
2022/05/30 00:21:32;;;;;;;5.90;3.58;;;;;;;;;;5094087;28;20115;-72
2022/05/30 00:23:57;;;;;;;4.35;3.97;;;;;;;;;;5095101;28;20016;-72
2022/05/30 00:26:23;;;;;;;4.95;3.95;;;;;;;;;;5093229;28;20131;-72
2022/05/30 00:28:49;;;;;;;5.28;3.72;;;;;;;;;;5095044;28;20020;-72
2022/05/30 00:31:16;;;;;;;4.15;3.75;;;;;;;;;;5094152;28;20036;-72
2022/05/30 00:33:42;;;;;;;5.90;4.00;;;;;;;;;;5093975;28;20020;-72
2022/05/30 00:36:08;;;;;;;4.15;3.75;;;;;;;;;;5094942;28;20449;-72
2022/05/30 00:38:33;;;;;;;4.32;3.92;;;;;;;;;;5095232;28;20051;-71
2022/05/30 00:40:59;;;;;;;3.70;3.40;;;;;;;;;;5093382;28;20432;-71
2022/05/30 00:43:29;;;;;;;4.13;3.58;;;;;;;;;;5095388;28;20022;-71
2022/05/30 00:45:55;;;;;;;7.00;3.92;;;;;;;;;;5094712;28;20066;-71
2022/05/30 00:48:23;;;;;;;4.45;3.63;;;;;;;;;;5094818;28;20546;-71
2022/05/30 00:50:51;;;;;;;4.55;3.38;;;;;;;;;;5094473;28;20035;-71
2022/05/30 00:53:16;;;;;;;4.38;3.25;;;;;;;;;;5094798;28;20024;-71
2022/05/30 00:55:43;;;;;;;3.38;3.08;;;;;;;;;;5094660;28;20028;-71
2022/05/30 00:58:09;;;;;;;3.33;2.65;;;;;;;;;;5093262;28;20077;-72
2022/05/30 01:00:35;;;;;;;4.32;2.70;;;;;;;;;;5094868;28;20080;-72
2022/05/30 01:08:30;;;;;;;2.92;2.47;;;;;;;;;;5093172;28;20024;-71
2022/05/30 01:10:55;;;;;;;3.20;2.90;;;;;;;;;;5094498;28;20023;-70
2022/05/30 01:13:23;;;;;;;3.45;2.83;;;;;;;;;;5094214;28;20056;-72
2022/05/30 01:15:49;;;;;;;3.78;3.08;;;;;;;;;;5092800;28;20028;-72
2022/05/30 01:18:21;;;;;;;3.42;2.97;;;;;;;;;;5094258;28;20367;-72
2022/05/30 01:20:54;;;;;;;3.38;2.90;;;;;;;;;;5092713;28;20044;-72
2022/05/30 01:23:32;;;;;;;3.80;3.50;;;;;;;;;;5092700;28;20050;-72
2022/05/30 01:26:23;;;;;;;3.20;2.90;;;;;;;;;;5092965;28;20028;-72
2022/05/30 01:28:56;;;;;;;3.72;2.95;;;;;;;;;;5092693;28;20028;-72
2022/05/30 01:31:23;;;;;;;3.25;2.95;;;;;;;;;;5092624;28;20032;-72
2022/05/30 01:33:49;;;;;;;3.20;2.90;;;;;;;;;;5093849;28;20027;-72
2022/05/30 01:36:15;;;;;;;2.70;2.50;;;;;;;;;;5092365;28;20028;-71
2022/05/30 01:38:40;;;;;;;2.67;2.47;;;;;;;;;;5092498;28;20053;-71
2022/05/30 01:41:08;;;;;;;4.63;2.58;;;;;;;;;;5092973;28;20032;-71
2022/05/30 01:43:34;;;;;;;2.15;1.95;;;;;;;;;;5092481;28;20019;-72
2022/05/30 01:46:07;;;;;;;2.20;2.10;;;;;;;;;;5092452;28;20036;-72
2022/05/30 01:48:39;;;;;;;2.78;2.20;;;;;;;;;;5092600;28;20051;-72
2022/05/30 01:51:04;;;;;;;2.00;1.90;;;;;;;;;;5092698;28;20032;-71
2022/05/30 01:53:30;;;;;;;3.05;2.30;;;;;;;;;;5092395;28;20103;-72
2022/05/30 01:56:14;;;;;;;3.70;2.20;;;;;;;;;;5094500;28;20108;-72
2022/05/30 01:58:41;;;;;;;2.60;2.40;;;;;;;;;;5092591;28;20052;-72
2022/05/30 02:01:27;;;;;;;2.78;2.40;;;;;;;;;;5093184;28;20039;-72
2022/05/30 02:03:55;;;;;;;4.65;2.40;;;;;;;;;;5092732;28;20031;-70
2022/05/30 02:06:22;;;;;;;3.50;2.90;;;;;;;;;;5092144;28;20029;-70
2022/05/30 02:08:48;;;;;;;2.92;2.33;;;;;;;;;;5092433;28;20485;-71
2022/05/30 02:11:14;;;;;;;3.22;2.67;;;;;;;;;;5092245;28;20531;-71
2022/05/30 02:13:39;;;;;;;3.17;1.92;;;;;;;;;;5092227;28;20123;-71
2022/05/30 02:18:58;;;;;;;3.42;2.33;;;;;;;;;;5092110;28;20474;-71
2022/05/30 02:21:24;;;;;;;1.88;1.77;;;;;;;;;;5094118;28;20460;-72
2022/05/30 02:23:50;;;;;;;2.70;2.40;;;;;;;;;;5092701;28;20054;-71
2022/05/30 02:26:15;;;;;;;3.55;2.33;;;;;;;;;;5093402;28;20020;-71
2022/05/30 02:28:41;;;;;;;2.38;1.75;;;;;;;;;;5092499;28;20029;-71
2022/05/30 02:31:06;;;;;;;1.63;1.52;;;;;;;;;;5092572;28;20358;-71
2022/05/30 02:39:09;;;;;;;1.48;1.38;;;;;;;;;;5091989;28;20479;-71
2022/05/30 02:41:46;;;;;;;2.10;1.80;;;;;;;;;;5093435;28;20048;-72
2022/05/30 02:44:18;;;;;;;2.00;1.90;;;;;;;;;;5092825;28;20016;-72
2022/05/30 02:46:44;;;;;;;2.03;1.92;;;;;;;;;;5091953;28;20090;-72
2022/05/30 02:49:10;;;;;;;2.65;2.20;;;;;;;;;;5094119;28;20102;-71
2022/05/30 02:51:35;;;;;;;1.60;1.50;;;;;;;;;;5095960;28;20024;-71
2022/05/30 02:54:03;;;;;;;2.53;1.58;;;;;;;;;;5095511;28;20073;-71
2022/05/30 02:56:41;;;;;;;2.42;1.77;;;;;;;;;;5097373;28;20040;-71
2022/05/30 02:59:07;;;;;;;1.52;1.42;;;;;;;;;;5078525;28;20039;-71
2022/05/30 03:01:35;;;;;;;1.63;1.52;;;;;;;;;;5095694;28;20101;-71
2022/05/30 03:04:02;;;;;;;2.15;2.00;;;;;;;;;;5095194;28;20052;-71
2022/05/30 03:06:27;;;;;;;1.65;1.55;;;;;;;;;;5095453;28;20048;-71
2022/05/30 03:08:53;;;;;;;3.70;1.75;;;;;;;;;;5095213;28;20539;-71
2022/05/30 03:11:38;;;;;;;2.00;1.77;;;;;;;;;;5095703;28;20363;-71
2022/05/30 03:14:04;;;;;;;1.95;1.80;;;;;;;;;;5095081;28;20057;-72
2022/05/30 03:16:29;;;;;;;2.00;1.40;;;;;;;;;;5096390;28;20104;-71
2022/05/30 03:18:55;;;;;;;1.65;1.55;;;;;;;;;;5094968;28;20493;-71
2022/05/30 03:21:20;;;;;;;1.50;1.40;;;;;;;;;;5095322;28;20028;-71
2022/05/30 03:23:46;;;;;;;1.75;1.00;;;;;;;;;;5094869;28;20035;-72
2022/05/30 03:26:19;;;;;;;1.70;1.38;;;;;;;;;;5094945;28;20024;-71
2022/05/30 03:28:44;;;;;;;1.60;1.42;;;;;;;;;;5094857;28;20494;-72
2022/05/30 03:31:09;;;;;;;1.70;1.40;;;;;;;;;;5096383;28;20024;-71
2022/05/30 03:33:39;;;;;;;1.50;1.40;;;;;;;;;;5095171;28;20485;-71
2022/05/30 03:36:15;;;;;;;1.10;1.10;;;;;;;;;;5094695;28;20028;-71
2022/05/30 03:39:01;;;;;;;1.33;1.23;;;;;;;;;;5074653;28;20478;-72
2022/05/30 03:41:45;;;;;;;1.38;1.27;;;;;;;;;;5095936;28;20097;-72
2022/05/30 03:44:17;;;;;;;1.33;1.23;;;;;;;;;;5094745;28;20478;-72
2022/05/30 03:46:42;;;;;;;1.10;1.10;;;;;;;;;;5077718;28;20046;-72
2022/05/30 03:49:08;;;;;;;1.30;1.20;;;;;;;;;;5096031;28;20102;-72
2022/05/30 03:51:33;;;;;;;1.30;1.20;;;;;;;;;;5094452;28;20039;-71
2022/05/30 03:53:59;;;;;;;1.20;1.15;;;;;;;;;;5094865;28;20023;-72
2022/05/30 03:56:24;;;;;;;1.67;1.35;;;;;;;;;;5095816;28;20024;-66
2022/05/30 03:58:50;;;;;;;1.42;1.33;;;;;;;;;;5094454;28;20020;-71
2022/05/30 04:01:15;;;;;;;2.03;1.10;;;;;;;;;;5095826;28;20032;-72
2022/05/30 04:03:42;;;;;;;1.60;1.00;;;;;;;;;;5095473;28;20178;-71
2022/05/30 04:06:08;;;;;;;1.27;1.17;;;;;;;;;;5093946;28;20413;-71
2022/05/30 04:08:35;;;;;;;1.08;1.05;;;;;;;;;;5093995;28;20074;-71
2022/05/30 04:11:27;;;;;;;1.27;1.17;;;;;;;;;;5086342;28;20093;-70
2022/05/30 04:14:11;;;;;;;1.30;1.20;;;;;;;;;;5095318;28;20046;-70
2022/05/30 04:17:03;;;;;;;1.20;1.10;;;;;;;;;;5092858;28;20047;-69
2022/05/30 04:19:29;;;;;;;1.00;1.00;;;;;;;;;;5093613;28;20028;-69
2022/05/30 04:21:54;;;;;;;1.38;1.27;;;;;;;;;;5092808;28;20028;-71
2022/05/30 04:24:40;;;;;;;1.48;1.38;;;;;;;;;;5086878;28;20111;-71
2022/05/30 04:27:06;;;;;;;1.13;1.05;;;;;;;;;;5092289;28;20062;-71
2022/05/30 04:29:32;;;;;;;1.33;1.33;;;;;;;;;;5092466;28;20012;-71
2022/05/30 04:32:01;;;;;;;1.02;1.02;;;;;;;;;;5094024;28;20543;-71
2022/05/30 04:34:27;;;;;;;1.20;1.10;;;;;;;;;;5075492;28;20019;-71
2022/05/30 04:36:53;;;;;;;1.00;1.00;;;;;;;;;;5092315;28;20119;-70
2022/05/30 04:39:18;;;;;;;1.80;1.20;;;;;;;;;;5093555;28;20028;-70
2022/05/30 04:41:55;;;;;;;1.35;1.25;;;;;;;;;;5094898;28;20028;-70
2022/05/30 04:44:59;;;;;;;1.27;1.10;;;;;;;;;;5094425;28;20036;-70
2022/05/30 04:47:50;;;;;;;0.95;0.95;;;;;;;;;;5093168;28;20024;-71
2022/05/30 04:50:16;;;;;;;1.05;1.00;;;;;;;;;;5093292;28;20708;-70
2022/05/30 04:52:44;;;;;;;1.55;1.45;;;;;;;;;;5093194;28;20024;-70
2022/05/30 04:55:29;;;;;;;2.22;1.52;;;;;;;;;;5072986;28;20032;-69
2022/05/30 04:57:56;;;;;;;1.95;1.50;;;;;;;;;;5092990;28;20739;-70
2022/05/30 05:00:44;;;;;;;1.45;1.27;;;;;;;;;;5094049;28;20412;-73
2022/05/30 05:03:14;;;;;;;1.58;1.48;;;;;;;;;;5093049;28;20020;-73
2022/05/30 05:05:39;;;;;;;1.80;1.70;;;;;;;;;;5089646;28;20093;-72
2022/05/30 05:08:06;;;;;;;1.38;1.27;;;;;;;;;;5073858;28;20021;-72
2022/05/30 05:10:52;;;;;;;1.48;1.38;;;;;;;;;;5055591;28;20517;-73
2022/05/30 05:13:27;;;;;;;1.92;1.30;;;;;;;;;;5055858;28;20432;-72
2022/05/30 05:16:11;;;;;;;1.50;1.35;;;;;;;;;;5074278;28;20035;-72
2022/05/30 05:18:38;;;;;;;2.88;1.40;;;;;;;;;;5056257;28;20374;-72
2022/05/30 05:21:03;;;;;;;1.50;1.35;;;;;;;;;;5055774;28;20069;-72
2022/05/30 05:23:29;;;;;;;2.83;1.35;;;;;;;;;;5056099;28;20494;-72
2022/05/30 05:26:01;;;;;;;1.20;1.10;;;;;;;;;;5056056;28;20016;-72
2022/05/30 05:28:35;;;;;;;1.05;1.00;;;;;;;;;;5073619;28;20364;-72
2022/05/30 05:31:01;;;;;;;1.40;1.30;;;;;;;;;;5055766;28;20039;-72
2022/05/30 05:33:27;;;;;;;1.55;1.30;;;;;;;;;;5055947;28;20119;-72
2022/05/30 05:35:53;;;;;;;1.48;1.20;;;;;;;;;;5056125;28;20113;-72
2022/05/30 05:38:19;;;;;;;1.30;1.05;;;;;;;;;;5055702;28;20020;-72
2022/05/30 05:41:06;;;;;;;1.35;1.25;;;;;;;;;;5055846;28;20426;-72
2022/05/30 05:43:43;;;;;;;1.98;1.33;;;;;;;;;;5073485;28;20427;-72
2022/05/30 05:46:19;;;;;;;1.05;1.05;;;;;;;;;;5056230;28;20116;-72
2022/05/30 05:48:44;;;;;;;1.40;1.30;;;;;;;;;;5055597;28;20576;-72
2022/05/30 05:51:10;;;;;;;1.75;1.20;;;;;;;;;;5055599;28;20024;-72
2022/05/30 05:53:36;;;;;;;2.05;1.30;;;;;;;;;;5055732;28;20035;-72
2022/05/30 05:56:15;;;;;;;1.13;1.13;;;;;;;;;;5055484;28;20031;-72
2022/05/30 05:58:40;;;;;;;1.73;1.58;;;;;;;;;;5073549;28;20120;-72
2022/05/30 06:01:10;;;;;;;1.60;1.50;;;;;;;;;;5055351;28;20103;-72
2022/05/30 06:03:35;;;;;;;1.58;1.48;;;;;;;;;;5056262;28;20030;-72
2022/05/30 06:06:36;;;;;;;;;;;;;;;;;;5011902;28;20096;-72
2022/05/30 06:09:03;;;;;;;1.40;1.30;;;;;;;;;;5042251;28;19908;-72
2022/05/30 06:11:47;;;;;;;1.40;1.30;;;;;;;;;;5073615;28;20032;-72
2022/05/30 06:14:12;;;;;;;2.08;1.77;;;;;;;;;;5073567;28;20113;-72
2022/05/30 06:20:16;;;;;;;1.55;1.40;;;;;;;;;;5073260;28;20074;-72
2022/05/30 06:22:42;;;;;;;2.35;1.90;;;;;;;;;;5055171;28;20441;-72
2022/05/30 06:25:23;;;;;;;2.08;1.80;;;;;;;;;;5059365;28;20104;-72
2022/05/30 06:28:07;;;;;;;5.13;1.85;;;;;;;;;;5077602;28;20067;-72
2022/05/30 06:30:43;;;;;;;2.50;1.85;;;;;;;;;;5077869;28;20110;-73
2022/05/30 06:33:08;;;;;;;1.92;1.55;;;;;;;;;;5058924;28;20028;-73
2022/05/30 06:35:44;;;;;;;2.05;1.70;;;;;;;;;;5044082;28;20103;-72
2022/05/30 06:38:11;;;;;;;2.40;1.95;;;;;;;;;;5059165;28;20024;-72
2022/05/30 06:44:12;;;;;;;1.75;1.40;;;;;;;;;;5076990;28;20047;-72
2022/05/30 06:50:31;;;;;;;2.20;2.00;;;;;;;;;;5076876;28;20051;-72
2022/05/30 06:56:34;;;;;;;2.10;1.98;;;;;;;;;;5076791;28;20505;-72
2022/05/30 07:02:36;;;;;;;1.92;1.70;;;;;;;;;;5076631;28;20047;-72
2022/05/30 07:13:11;;;;;;;2.03;1.90;;;;;;;;;;5076511;28;20035;-72
2022/05/30 07:15:38;;;;;;;2.67;1.70;;;;;;;;;;5058801;28;20036;-72
2022/05/30 07:18:11;;;;;;;2.80;1.67;;;;;;;;;;5058539;28;20354;-72
2022/05/30 07:20:37;;;;;;;2.50;1.77;;;;;;;;;;5076531;28;20032;-72
2022/05/30 07:23:22;;;;;;;1.85;1.75;;;;;;;;;;5076851;28;20043;-71
2022/05/30 07:26:08;;;;;;;2.22;2.03;;;;;;;;;;5076495;28;20436;-70
2022/05/30 07:28:56;;;;;;;5.18;2.65;;;;;;;;;;5034873;28;20360;-70
2022/05/30 07:35:15;;;;;;;2.25;1.77;;;;;;;;;;5075493;28;20027;-70
2022/05/30 07:41:15;;;;;;;1.67;1.58;;;;;;;;;;5075842;28;20090;-70
2022/05/30 07:47:35;;;;;;;3.35;2.10;;;;;;;;;;5033811;28;20053;-67
2022/05/30 07:53:53;;;;;;;2.28;2.08;;;;;;;;;;5033584;28;20028;-67
2022/05/30 07:56:49;;;;;;;1.92;1.83;;;;;;;;;;5034209;28;20179;-69
2022/05/30 08:02:50;;;;;;;2.47;2.28;;;;;;;;;;5033225;28;20067;-67
2022/05/30 08:08:52;;;;;;;1.95;1.75;;;;;;;;;;5061745;28;20039;-68
2022/05/30 08:11:18;;;;;;;1.65;1.55;;;;;;;;;;5056090;28;20052;-68
2022/05/30 08:13:49;;;;;;;1.77;1.67;;;;;;;;;;5055966;28;20028;-68
2022/05/30 08:16:16;;;;;;;1.67;1.58;;;;;;;;;;5095066;28;20039;-68
2022/05/30 08:22:18;;;;;;;1.60;1.50;;;;;;;;;;5095149;28;20039;-68
2022/05/30 08:28:19;;;;;;;4.35;3.08;;;;;;;;;;5095256;28;20031;-70
2022/05/30 08:34:20;;;;;;;2.45;2.25;;;;;;;;;;5094905;28;20069;-68
2022/05/30 08:44:31;;;;;;;1.92;1.63;;;;;;;;;;5073206;28;20423;-67
2022/05/30 09:01:54;;;;;;;2.53;2.33;;;;;;;;;;5012487;28;20044;-69
2022/05/30 09:05:12;;;;;;;3.35;2.83;;;;;;;;;;4972634;28;20042;-69
2022/05/30 09:07:49;;;;;;;3.60;3.20;;;;;;;;;;4998054;28;20151;-69
2022/05/30 09:10:27;;;;;;;3.33;2.53;;;;;;;;;;5033820;28;20029;-70
2022/05/30 09:13:15;;;;;;;2.67;2.40;;;;;;;;;;5033230;28;20029;-70
2022/05/30 09:16:13;;;;;;;5.30;2.92;;;;;;;;;;5033385;28;20102;-69
2022/05/30 09:18:46;;;;;;;3.45;1.98;;;;;;;;;;5050347;28;20033;-69
2022/05/30 09:21:14;;;;;;;3.42;2.40;;;;;;;;;;5033465;28;20091;-68
2022/05/30 09:23:44;;;;;;;13.80;2.92;;;;;;;;;;5033675;28;20040;-68
2022/05/30 09:26:16;;;;;;;4.30;2.45;;;;;;;;;;5050237;28;20530;-68
2022/05/30 09:29:20;;;;;;;3.63;2.28;;;;;;;;;;5059389;28;20094;-68
2022/05/30 09:32:21;;;;;;;7.15;2.60;;;;;;;;;;5073007;28;20043;-71
2022/05/30 09:34:53;;;;;;;2.22;2.03;;;;;;;;;;5073020;28;20496;-70
2022/05/30 09:37:38;;;;;;;2.28;1.98;;;;;;;;;;5072893;28;20409;-70
2022/05/30 09:40:51;;;;;;;4.25;2.30;;;;;;;;;;5072656;28;20063;-70
2022/05/30 09:43:42;;;;;;;3.72;2.42;;;;;;;;;;5071234;28;20058;-70
2022/05/30 09:46:16;;;;;;;3.53;1.83;;;;;;;;;;5071198;28;20024;-70
2022/05/30 09:49:06;;;;;;;5.07;2.28;;;;;;;;;;5072369;28;20035;-70
2022/05/30 09:51:36;;;;;;;2.60;2.00;;;;;;;;;;5071120;28;20028;-70
2022/05/30 09:54:08;;;;;;;6.13;3.08;;;;;;;;;;5071112;28;20029;-70
2022/05/30 09:56:37;;;;;;;2.22;1.92;;;;;;;;;;5071180;28;20391;-70
2022/05/30 09:59:10;;;;;;;3.55;2.25;;;;;;;;;;5075053;28;20081;-70
2022/05/30 10:01:49;;;;;;;4.95;3.00;;;;;;;;;;5092234;28;20031;-73
2022/05/30 10:04:36;;;;;;;2.80;2.60;;;;;;;;;;5075198;28;20024;-72
2022/05/30 10:07:15;;;;;;;4.15;2.92;;;;;;;;;;5075071;28;20036;-68
2022/05/30 10:09:56;;;;;;;4.40;2.33;;;;;;;;;;5056579;28;20090;-68
2022/05/30 10:12:34;;;;;;;3.67;3.03;;;;;;;;;;5038275;28;20116;-67
2022/05/30 10:15:00;;;;;;;3.15;2.95;;;;;;;;;;5038204;28;20029;-68
2022/05/30 10:17:36;;;;;;;4.03;2.22;;;;;;;;;;5038235;28;20021;-69
2022/05/30 10:20:08;;;;;;;2.30;2.10;;;;;;;;;;5038219;28;20033;-68
2022/05/30 10:29:31;;;;;;;1.20;1.10;;;;;;;;;;5055646;28;20048;-68
2022/05/30 10:32:27;;;;;;;0.90;0.90;;;;;;;;;;5037887;28;20025;-68
2022/05/30 10:35:08;;;;;;;1.10;1.10;;;;;;;;;;5037888;28;20078;-68
2022/05/30 10:37:52;;;;;;;1.20;1.20;;;;;;;;;;5037715;28;20032;-68
2022/05/30 10:40:30;;;;;;;1.10;1.00;;;;;;;;;;5037680;28;20487;-68
2022/05/30 10:43:12;;;;;;;1.00;1.00;;;;;;;;;;5021376;28;20082;-68
2022/05/30 10:45:37;;;;;;;;;;;;;;;;;;5038084;28;20434;-68
2022/05/30 10:48:05;;;;;;;1.48;1.38;;;;;;;;;;5055588;28;19908;-68
2022/05/30 10:50:42;;;;;;;1.70;1.60;;;;;;;;;;5037497;28;20052;-68
2022/05/30 10:56:49;;;;;;;3.17;1.40;;;;;;;;;;4995676;28;20041;-68
2022/05/30 11:02:39;;;;;;;1.73;1.20;;;;;;;;;;4995041;28;20304;-68
2022/05/30 11:12:47;;;;;;;2.58;1.35;;;;;;;;;;5034560;28;20056;-68
2022/05/30 11:19:07;;;;;;;3.47;1.08;;;;;;;;;;5034203;28;20048;-68
2022/05/30 11:25:44;;;;;;;1.70;1.00;;;;;;;;;;5034334;28;20028;-68
2022/05/30 11:31:53;;;;;;;2.47;0.85;;;;;;;;;;5075922;28;20036;-68
2022/05/30 11:38:04;;;;;;;1.40;1.33;;;;;;;;;;5076073;28;20382;-69
2022/05/30 11:44:11;;;;;;;1.80;1.70;;;;;;;;;;5075938;28;20039;-68
2022/05/30 11:50:21;;;;;;;1.40;1.30;;;;;;;;;;5075568;28;20031;-69
2022/05/30 11:56:31;;;;;;;1.60;1.50;;;;;;;;;;5075728;28;20028;-69
2022/05/30 12:13:19;;;;;;;2.60;2.00;;;;;;;;;;4994082;28;20381;-70
2022/05/30 12:25:30;;;;;;;2.88;1.50;;;;;;;;;;5075445;28;20033;-70
2022/05/30 12:28:17;;;;;;;1.50;1.40;;;;;;;;;;5075020;28;20032;-70
2022/05/30 12:34:17;;;;;;;1.45;1.35;;;;;;;;;;5074945;28;20394;-70
2022/05/30 12:40:18;;;;;;;0.30;0.30;;;;;;;;;;5074804;28;20107;-69
2022/05/30 12:46:20;;;;;;;3.58;2.22;;;;;;;;;;5074681;28;20109;-69
2022/05/30 12:52:21;;;;;;;2.25;2.08;;;;;;;;;;5074590;28;20055;-70
2022/05/30 12:58:33;;;;;;;4.03;3.63;;;;;;;;;;5074470;28;20074;-69
2022/05/30 13:04:35;;;;;;;2.85;2.65;;;;;;;;;;5074374;28;20046;-70
2022/05/30 13:14:36;;;;;;;3.42;2.83;;;;;;;;;;5054297;28;20036;-70
2022/05/30 13:20:51;;;;;;;3.60;3.28;;;;;;;;;;5054184;28;20094;-70
2022/05/30 13:26:52;;;;;;;3.08;2.50;;;;;;;;;;5054046;28;20028;-70
2022/05/30 13:32:52;;;;;;;1.80;1.70;;;;;;;;;;5053693;28;20063;-70
2022/05/30 13:38:54;;;;;;;2.92;2.72;;;;;;;;;;5054055;28;20035;-69
2022/05/30 14:27:14;;;;;;;1.80;1.70;;;;;;;;;;5051020;28;20134;-69
2022/05/30 14:29:43;;;;;;;2.70;1.92;;;;;;;;;;5052256;28;20036;-69
2022/05/30 14:32:22;;;;;;;2.72;2.03;;;;;;;;;;5052746;28;20025;-69
2022/05/30 14:35:07;;;;;;;1.60;1.50;;;;;;;;;;5051644;28;20033;-69
2022/05/30 14:41:08;;;;;;;1.75;1.65;;;;;;;;;;5052963;28;20083;-69
2022/05/30 14:47:10;;;;;;;2.28;2.08;;;;;;;;;;5056985;28;20092;-69
2022/05/30 14:53:14;;;;;;;2.22;1.50;;;;;;;;;;5056904;28;20083;-69
2022/05/30 14:59:26;;;;;;;1.33;1.23;;;;;;;;;;5056823;28;20103;-69
2022/05/30 15:05:27;;;;;;;2.45;1.48;;;;;;;;;;5056696;28;20614;-69
2022/05/30 15:11:28;;;;;;;1.80;1.48;;;;;;;;;;5056570;28;20441;-70
2022/05/30 15:17:28;;;;;;;1.52;1.42;;;;;;;;;;5056421;28;20028;-69
2022/05/30 15:23:28;;;;;;;1.55;1.23;;;;;;;;;;5056336;28;20048;-69
2022/05/30 15:33:57;;;;;;;2.03;1.27;;;;;;;;;;5036277;28;20120;-69
2022/05/30 15:39:59;;;;;;;1.50;1.40;;;;;;;;;;5036106;28;20117;-69
2022/05/30 15:42:24;;;;;;;1.40;1.30;;;;;;;;;;5035842;28;20427;-69
2022/05/30 15:44:50;;;;;;;1.40;1.30;;;;;;;;;;5035908;28;20075;-69
2022/05/30 15:47:16;;;;;;;1.50;1.40;;;;;;;;;;5035655;28;20036;-69
2022/05/30 15:49:42;;;;;;;1.33;1.20;;;;;;;;;;5035498;28;20032;-69
2022/05/30 15:52:12;;;;;;;3.30;1.73;;;;;;;;;;5034666;28;20098;-70
2022/05/30 15:57:34;;;;;;;1.38;1.30;;;;;;;;;;5034402;28;20164;-69
2022/05/30 16:00:00;;;;;;;1.60;1.35;;;;;;;;;;5035037;28;20049;-69
2022/05/30 16:02:25;;;;;;;2.38;1.40;;;;;;;;;;5035304;28;20033;-69
2022/05/30 16:08:43;;;;;;;1.75;1.65;;;;;;;;;;5035575;28;20043;-69
2022/05/30 16:14:43;;;;;;;1.40;1.30;;;;;;;;;;5035451;28;20093;-69
2022/05/30 16:20:44;;;;;;;1.15;1.05;;;;;;;;;;5035312;28;20548;-69
2022/05/30 16:26:44;;;;;;;1.05;1.05;;;;;;;;;;5034953;28;20032;-69
2022/05/30 16:37:12;;;;;;;1.40;1.30;;;;;;;;;;5035093;28;20490;-69
2022/05/30 16:43:13;;;;;;;1.63;1.52;;;;;;;;;;5034563;28;20423;-67
2022/05/30 16:49:15;;;;;;;1.67;1.58;;;;;;;;;;5034821;28;20082;-67
2022/05/30 16:55:15;;;;;;;2.00;1.90;;;;;;;;;;5034422;28;20087;-67
2022/05/30 17:01:16;;;;;;;1.75;1.65;;;;;;;;;;5034506;28;20047;-67
2022/05/30 17:07:18;;;;;;;1.80;1.60;;;;;;;;;;5033885;28;20037;-68
2022/05/30 17:13:20;;;;;;;2.83;1.40;;;;;;;;;;5034383;28;20100;-68
2022/05/30 17:19:21;;;;;;;1.60;1.50;;;;;;;;;;5034243;28;20025;-68
2022/05/30 17:25:25;;;;;;;1.83;1.73;;;;;;;;;;5034185;28;20113;-68
2022/05/30 17:41:45;;;;;;;1.52;1.42;;;;;;;;;;5033831;28;20094;-68
2022/05/30 17:47:48;;;;;;;1.60;1.50;;;;;;;;;;5033935;28;20092;-68
2022/05/30 17:50:15;;;;;;;1.80;1.67;;;;;;;;;;5033557;28;20030;-68
2022/05/30 17:52:51;;;;;;;1.77;1.67;;;;;;;;;;5033830;28;20033;-68
2022/05/30 17:55:17;;;;;;;1.60;1.50;;;;;;;;;;5033830;28;20480;-68
2022/05/30 17:57:42;;;;;;;1.73;1.63;;;;;;;;;;5033558;28;20072;-68
2022/05/30 18:00:10;;;;;;;2.20;2.00;;;;;;;;;;5034044;28;20435;-68
2022/05/30 18:02:35;;;;;;;3.22;2.13;;;;;;;;;;5033698;28;20033;-68
2022/05/30 18:08:42;;;;;;;2.45;1.45;;;;;;;;;;5033733;28;20036;-67
2022/05/30 18:14:49;;;;;;;1.73;1.60;;;;;;;;;;5033660;28;20033;-67
2022/05/30 18:20:50;;;;;;;3.65;3.35;;;;;;;;;;5037583;28;20032;-67
2022/05/30 18:26:51;;;;;;;3.25;2.70;;;;;;;;;;5037440;28;20427;-67
2022/05/30 18:36:31;;;;;;;3.67;2.50;;;;;;;;;;5037290;28;20075;-67
2022/05/30 18:42:34;;;;;;;1.58;1.48;;;;;;;;;;5036842;28;20151;-66
2022/05/30 18:48:38;;;;;;;1.45;1.35;;;;;;;;;;5037380;28;20080;-67
2022/05/30 18:54:39;;;;;;;1.40;1.30;;;;;;;;;;5036965;28;20092;-66
2022/05/30 19:00:38;;;;;;;4.22;2.92;;;;;;;;;;5036858;28;20083;-66
2022/05/30 19:06:39;;;;;;;13.20;5.43;;;;;;;;;;5036739;28;20387;-66
2022/05/30 19:12:49;;;;;;;20.67;8.90;;;;;;;;;;5036653;28;20093;-66
2022/05/30 19:19:06;;;;;;;14.90;8.27;;;;;;;;;;5036495;28;20478;-67
2022/05/30 19:25:11;;;;;;;3.70;2.33;;;;;;;;;;5036397;28;20025;-66
2022/05/30 19:31:13;;;;;;;2.45;1.60;;;;;;;;;;5035720;28;20060;-66
2022/05/30 19:41:42;;;;;;;10.05;4.85;;;;;;;;;;5036019;28;20040;-66
2022/05/30 19:47:43;;;;;;;11.45;5.43;;;;;;;;;;5035998;28;20032;-66
2022/05/30 19:53:13;;;;;;;18.15;7.78;;;;;;;;;;5020622;28;20045;-66
2022/05/30 19:55:40;;;;;;;31.38;12.52;;;;;;;;;;5017761;28;20034;-66
2022/05/30 19:58:06;;;;;;;30.42;11.98;;;;;;;;;;5015767;28;20492;-66
2022/05/30 20:00:31;;;;;;;7.88;5.13;;;;;;;;;;5015955;28;20393;-66
2022/05/30 20:02:57;;;;;;;6.13;4.20;;;;;;;;;;5015426;28;20045;-66
2022/05/30 20:05:23;;;;;;;5.93;4.28;;;;;;;;;;5015571;28;20030;-66
2022/05/30 20:07:49;;;;;;;7.35;5.80;;;;;;;;;;5015777;28;20042;-66
2022/05/30 20:10:16;;;;;;;7.28;5.35;;;;;;;;;;5015897;28;20029;-66
2022/05/30 20:12:42;;;;;;;29.17;11.38;;;;;;;;;;5015670;28;20084;-66
2022/05/30 20:15:07;;;;;;;129.80;42.00;;;;;;;;;;5015375;28;20472;-66
2022/05/30 20:21:08;;;;;;;14.63;8.13;;;;;;;;;;5015463;28;20037;-66
2022/05/30 20:27:09;;;;;;;7.43;5.93;;;;;;;;;;5015454;28;20210;-66
2022/05/30 20:33:09;;;;;;;9.18;5.70;;;;;;;;;;5015361;28;20141;-66
2022/05/30 20:43:12;;;;;;;;;;;;;;;;;;5014487;28;20048;-66
2022/05/30 20:49:27;;;;;;;6.03;4.60;;;;;;;;;;5015094;28;20033;-66
2022/05/30 20:55:27;;;;;;;6.18;4.00;;;;;;;;;;5014974;28;20032;-67
2022/05/30 21:01:27;;;;;;;6.47;4.45;;;;;;;;;;5014763;28;20651;-69
2022/05/30 21:07:27;;;;;;;6.22;3.85;;;;;;;;;;5014740;28;20420;-68
2022/05/30 21:13:27;;;;;;;8.65;5.80;;;;;;;;;;5014429;28;20392;-68
2022/05/30 21:19:34;;;;;;;8.52;5.72;;;;;;;;;;5014568;28;20028;-66
2022/05/30 21:25:35;;;;;;;9.13;6.07;;;;;;;;;;5014391;28;20095;-69
2022/05/30 21:28:01;;;;;;;7.55;5.55;;;;;;;;;;4996653;28;20073;-70
2022/05/30 21:30:27;;;;;;;10.77;6.07;;;;;;;;;;5014169;28;20044;-70
2022/05/30 21:32:54;;;;;;;8.55;5.07;;;;;;;;;;4996494;28;20061;-70
2022/05/30 21:35:19;;;;;;;7.47;4.95;;;;;;;;;;5014247;28;20487;-69
2022/05/30 21:37:45;;;;;;;7.88;5.22;;;;;;;;;;5013862;28;20046;-70
2022/05/30 21:40:12;;;;;;;17.52;8.90;;;;;;;;;;5014031;28;20046;-70
2022/05/30 21:42:37;;;;;;;14.57;8.43;;;;;;;;;;5014157;28;20053;-70
2022/05/30 21:45:03;;;;;;;12.90;7.03;;;;;;;;;;5013691;28;20121;-70
2022/05/30 21:47:29;;;;;;;11.75;6.22;;;;;;;;;;4996315;28;20125;-70
2022/05/30 21:49:55;;;;;;;6.97;5.15;;;;;;;;;;5013930;28;20536;-70
2022/05/30 21:52:20;;;;;;;5.68;4.80;;;;;;;;;;5014392;28;20527;-70
2022/05/30 21:54:45;;;;;;;6.28;5.15;;;;;;;;;;5013917;28;20034;-70
2022/05/30 21:59:55;;;;;;;7.35;5.10;;;;;;;;;;5013880;28;20042;-70
2022/05/30 22:02:20;;;;;;;7.97;5.00;;;;;;;;;;5013699;28;20445;-70
2022/05/30 22:04:45;;;;;;;8.65;5.38;;;;;;;;;;5014374;28;20361;-70
2022/05/30 22:07:11;;;;;;;9.35;5.28;;;;;;;;;;5014223;28;20057;-70
2022/05/30 22:09:37;;;;;;;6.97;5.03;;;;;;;;;;5013773;28;20045;-70
2022/05/30 22:12:02;;;;;;;9.85;5.57;;;;;;;;;;5013941;28;20061;-70
2022/05/30 22:14:28;;;;;;;6.70;4.53;;;;;;;;;;5013906;28;20128;-70
2022/05/30 22:16:53;;;;;;;7.10;4.55;;;;;;;;;;5013696;28;20065;-70
2022/05/30 22:19:20;;;;;;;8.55;4.90;;;;;;;;;;5013568;28;20042;-71
2022/05/30 22:21:45;;;;;;;8.63;5.70;;;;;;;;;;5013783;28;20061;-71
2022/05/30 22:24:10;;;;;;;6.63;5.18;;;;;;;;;;5013570;28;20481;-71
2022/05/30 22:26:36;;;;;;;6.60;5.20;;;;;;;;;;5013857;28;20029;-71
2022/05/30 22:29:01;;;;;;;11.13;6.97;;;;;;;;;;5013700;28;20045;-70
2022/05/30 22:31:29;;;;;;;15.27;8.45;;;;;;;;;;5013809;28;20113;-71
2022/05/30 22:33:54;;;;;;;15.02;8.50;;;;;;;;;;5013765;28;20045;-70
2022/05/30 22:36:20;;;;;;;12.80;7.70;;;;;;;;;;5013913;28;20037;-70
2022/05/30 22:38:46;;;;;;;11.57;7.90;;;;;;;;;;5013443;28;20064;-70
2022/05/30 22:41:12;;;;;;;11.05;7.75;;;;;;;;;;5013328;28;20033;-71
2022/05/30 22:43:38;;;;;;;14.35;8.43;;;;;;;;;;5013860;28;20128;-71
2022/05/30 22:46:03;;;;;;;12.25;7.88;;;;;;;;;;5013685;28;20034;-71
2022/05/30 22:48:30;;;;;;;13.48;7.93;;;;;;;;;;5013310;28;20429;-70
2022/05/30 22:51:14;;;;;;;11.00;6.38;;;;;;;;;;5013367;28;20100;-70
2022/05/30 22:53:41;;;;;;;9.50;6.30;;;;;;;;;;5013669;28;20056;-70
2022/05/30 22:56:07;;;;;;;11.98;7.53;;;;;;;;;;5013303;28;20377;-70
2022/05/30 22:58:32;;;;;;;11.50;7.25;;;;;;;;;;5013513;28;20057;-70
2022/05/30 23:00:58;;;;;;;7.43;5.82;;;;;;;;;;5013520;28;20026;-70
2022/05/30 23:03:24;;;;;;;7.05;5.10;;;;;;;;;;5013337;28;20069;-70
2022/05/30 23:05:49;;;;;;;6.50;4.88;;;;;;;;;;5015077;28;20038;-70